Time;durP1;ratioP1;P1;durP2;ratioP2;P2;SDS_P1;SDS_P2;PMS_P1;PMS_P2;Temp;Humidity;BMP_temperature;BMP_pressure;BME280_temperature;BME280_humidity;BME280_pressure;Samples;Min_cycle;Max_cycle;Signal;HPM_P1;HPM_P2
2021/06/18 00:01:50;;;;;;;8.20;7.43;;;23.10;99.90;;;;;;5103875;28;20193;-85
2021/06/18 00:04:16;;;;;;;9.10;8.30;;;23.00;99.90;;;;;;5101744;28;20163;-85
2021/06/18 00:06:41;;;;;;;8.50;7.80;;;23.00;99.90;;;;;;5101634;28;20250;-85
2021/06/18 00:09:08;;;;;;;11.97;8.13;;;22.90;99.90;;;;;;5086730;28;20194;-85
2021/06/18 00:11:34;;;;;;;8.47;7.67;;;22.90;99.90;;;;;;5103796;28;20643;-85
2021/06/18 00:14:00;;;;;;;10.30;7.87;;;22.90;99.90;;;;;;5106658;28;20445;-84
2021/06/18 00:16:27;;;;;;;8.37;7.57;;;22.90;99.90;;;;;;5106888;28;20403;-85
2021/06/18 00:18:52;;;;;;;8.73;8.00;;;22.80;99.90;;;;;;5111414;28;20417;-83
2021/06/18 00:21:18;;;;;;;8.50;7.33;;;22.90;99.90;;;;;;5110376;28;20408;-84
2021/06/18 00:23:44;;;;;;;7.80;7.13;;;22.80;99.90;;;;;;5081195;28;20188;-85
2021/06/18 00:26:10;;;;;;;8.73;7.73;;;22.90;99.90;;;;;;5097974;28;20166;-85
2021/06/18 00:28:36;;;;;;;7.33;6.73;;;22.80;99.90;;;;;;5099370;28;20201;-85
2021/06/18 00:31:02;;;;;;;9.13;8.37;;;22.70;99.90;;;;;;5100603;28;20162;-85
2021/06/18 00:33:30;;;;;;;8.30;7.30;;;22.60;99.90;;;;;;5100964;28;20453;-85
2021/06/18 00:35:57;;;;;;;7.60;6.97;;;22.50;99.90;;;;;;5099605;28;20393;-84
2021/06/18 00:38:23;;;;;;;9.30;8.50;;;22.50;99.90;;;;;;5099781;28;20743;-85
2021/06/18 00:40:52;;;;;;;9.33;8.43;;;22.60;99.90;;;;;;5101167;28;20459;-85
2021/06/18 00:43:18;;;;;;;10.13;9.17;;;22.50;99.90;;;;;;5101210;28;20424;-84
2021/06/18 00:45:44;;;;;;;9.23;8.33;;;22.60;99.90;;;;;;5100926;28;20413;-84
2021/06/18 00:48:11;;;;;;;11.93;9.20;;;22.60;99.90;;;;;;5101568;28;20464;-84
2021/06/18 00:50:37;;;;;;;9.57;8.70;;;22.60;99.90;;;;;;5100908;28;20163;-84
2021/06/18 00:53:04;;;;;;;8.17;7.53;;;22.50;99.90;;;;;;5100722;28;20801;-84
2021/06/18 00:55:32;;;;;;;8.83;8.10;;;22.40;99.90;;;;;;5104838;28;20455;-84
2021/06/18 00:57:57;;;;;;;10.47;9.47;;;22.50;99.90;;;;;;5116847;28;20491;-84
2021/06/18 01:00:23;;;;;;;8.93;8.17;;;22.40;99.90;;;;;;5119453;28;20412;-84
2021/06/18 01:02:50;;;;;;;8.63;7.37;;;22.30;99.90;;;;;;5120896;28;20182;-84
2021/06/18 01:05:18;;;;;;;8.37;7.70;;;22.30;99.90;;;;;;5117698;28;20163;-84
2021/06/18 01:08:01;;;;;;;8.57;7.87;;;22.30;99.90;;;;;;5103351;28;20429;-84
2021/06/18 01:10:55;;;;;;;9.47;8.47;;;22.30;99.90;;;;;;5102376;28;20551;-84
2021/06/18 01:13:48;;;;;;;8.67;7.87;;;22.30;99.90;;;;;;5103217;28;20567;-84
2021/06/18 01:16:29;;;;;;;10.10;8.50;;;22.30;99.90;;;;;;5102583;28;20393;-84
2021/06/18 01:19:04;;;;;;;9.30;8.60;;;22.30;99.90;;;;;;5102066;28;20887;-84
2021/06/18 01:21:34;;;;;;;9.37;8.47;;;22.20;99.90;;;;;;5102627;28;20396;-84
2021/06/18 01:24:07;;;;;;;8.40;7.60;;;22.20;99.90;;;;;;5102114;28;20450;-84
2021/06/18 01:26:56;;;;;;;10.10;9.03;;;22.20;99.90;;;;;;5102313;28;20463;-84
2021/06/18 01:29:24;;;;;;;9.93;9.03;;;22.10;99.90;;;;;;5102001;28;20404;-84
2021/06/18 01:31:51;;;;;;;12.10;9.20;;;22.10;99.90;;;;;;5100278;28;20507;-84
2021/06/18 01:34:23;;;;;;;8.90;7.93;;;22.20;99.90;;;;;;5101905;28;20496;-84
2021/06/18 01:36:56;;;;;;;9.10;8.20;;;22.10;99.90;;;;;;5102042;28;20401;-84
2021/06/18 01:39:24;;;;;;;9.67;8.77;;;22.10;99.90;;;;;;5101226;28;20463;-84
2021/06/18 01:41:52;;;;;;;10.87;9.87;;;22.00;99.90;;;;;;5101283;28;20424;-84
2021/06/18 01:44:20;;;;;;;10.77;9.87;;;21.90;99.90;;;;;;5102150;28;20885;-84
2021/06/18 01:46:48;;;;;;;11.40;10.30;;;21.90;99.90;;;;;;5101756;28;20479;-84
2021/06/18 01:49:15;;;;;;;10.90;9.90;;;21.90;99.90;;;;;;5101960;28;20385;-84
2021/06/18 01:51:43;;;;;;;9.07;8.27;;;21.80;99.90;;;;;;5101454;28;20384;-84
2021/06/18 01:54:11;;;;;;;9.90;8.87;;;21.80;99.90;;;;;;5100093;28;20397;-84
2021/06/18 01:56:40;;;;;;;10.80;10.00;;;21.70;99.90;;;;;;5101415;28;20389;-84
2021/06/18 01:59:06;;;;;;;9.40;8.70;;;21.80;99.90;;;;;;5101853;28;20388;-84
2021/06/18 02:01:36;;;;;;;9.90;8.97;;;21.70;99.90;;;;;;5100591;28;20393;-84
2021/06/18 02:04:05;;;;;;;10.53;9.53;;;21.50;99.90;;;;;;5101132;28;20444;-84
2021/06/18 02:06:33;;;;;;;9.77;8.87;;;21.50;99.90;;;;;;5100673;28;20764;-84
2021/06/18 02:09:00;;;;;;;11.23;10.10;;;21.20;99.90;;;;;;5101485;28;20917;-84
2021/06/18 02:11:28;;;;;;;11.50;10.50;;;21.40;99.90;;;;;;5101071;28;20446;-84
2021/06/18 02:13:57;;;;;;;9.90;9.00;;;21.40;99.90;;;;;;5101363;28;20404;-84
2021/06/18 02:16:28;;;;;;;11.17;10.07;;;21.50;99.90;;;;;;5101310;28;20403;-84
2021/06/18 02:18:55;;;;;;;10.83;9.83;;;21.60;99.90;;;;;;5101641;28;20397;-84
2021/06/18 02:21:22;;;;;;;10.00;9.00;;;21.70;99.90;;;;;;5102337;28;20404;-84
2021/06/18 02:23:49;;;;;;;10.90;9.83;;;21.70;99.90;;;;;;5102224;28;20441;-84
2021/06/18 02:26:16;;;;;;;9.10;8.40;;;21.60;99.90;;;;;;5102479;28;20483;-84
2021/06/18 02:28:42;;;;;;;11.00;10.00;;;21.70;99.90;;;;;;5102382;28;20401;-84
2021/06/18 02:31:11;;;;;;;11.83;10.63;;;21.70;99.90;;;;;;5114918;28;20404;-83
2021/06/18 02:33:37;;;;;;;10.70;9.60;;;21.70;99.90;;;;;;5120497;28;20158;-84
2021/06/18 02:36:04;;;;;;;10.77;9.27;;;21.70;99.90;;;;;;5120318;28;20408;-83
2021/06/18 02:38:32;;;;;;;11.13;9.97;;;21.70;99.90;;;;;;5120312;28;20198;-84
2021/06/18 02:40:58;;;;;;;10.50;9.40;;;21.60;99.90;;;;;;5113709;28;20593;-84
2021/06/18 02:43:23;;;;;;;9.40;8.70;;;21.50;99.90;;;;;;5083466;28;20922;-84
2021/06/18 02:45:49;;;;;;;10.90;10.00;;;21.40;99.90;;;;;;5101088;28;20429;-84
2021/06/18 02:48:29;;;;;;;10.13;9.13;;;21.30;99.90;;;;;;5102376;28;20162;-84
2021/06/18 02:51:02;;;;;;;10.90;10.00;;;21.20;99.90;;;;;;5101506;28;20216;-83
2021/06/18 02:53:49;;;;;;;11.00;9.67;;;21.20;99.90;;;;;;5100421;28;20403;-83
2021/06/18 02:56:31;;;;;;;9.27;8.50;;;21.20;99.90;;;;;;5100764;28;20741;-84
2021/06/18 02:59:13;;;;;;;10.20;9.17;;;21.20;99.90;;;;;;5100834;28;20405;-84
2021/06/18 03:01:39;;;;;;;9.47;8.70;;;21.10;99.90;;;;;;5101246;28;20734;-84
2021/06/18 03:04:08;;;;;;;9.87;8.87;;;21.10;99.90;;;;;;5100111;28;20449;-84
2021/06/18 03:06:36;;;;;;;10.40;9.47;;;21.10;99.90;;;;;;5100866;28;20406;-84
2021/06/18 03:09:05;;;;;;;9.40;8.60;;;21.20;99.90;;;;;;5100868;28;20515;-84
2021/06/18 03:11:35;;;;;;;9.83;8.87;;;21.20;99.90;;;;;;5101076;28;20393;-84
2021/06/18 03:14:07;;;;;;;9.00;8.20;;;21.10;99.90;;;;;;5100612;28;20466;-84
2021/06/18 03:16:34;;;;;;;10.20;9.30;;;21.10;99.90;;;;;;5083088;28;20404;-84
2021/06/18 03:19:04;;;;;;;10.23;9.20;;;21.00;99.90;;;;;;5100930;28;20431;-84
2021/06/18 03:21:33;;;;;;;9.47;8.73;;;21.00;99.90;;;;;;5099671;28;20907;-84
2021/06/18 03:24:01;;;;;;;10.10;9.30;;;21.00;99.90;;;;;;5098835;28;20449;-84
2021/06/18 03:26:28;;;;;;;10.17;9.37;;;20.90;99.90;;;;;;5101258;28;20400;-84
2021/06/18 03:28:55;;;;;;;10.23;9.40;;;21.00;99.90;;;;;;5100310;28;20405;-84
2021/06/18 03:31:23;;;;;;;18.13;8.90;;;20.90;99.90;;;;;;5101797;28;20460;-84
2021/06/18 03:33:50;;;;;;;10.40;9.40;;;21.00;99.90;;;;;;5102428;28;20401;-84
2021/06/18 03:36:23;;;;;;;10.10;8.57;;;20.90;99.90;;;;;;5102247;28;20397;-84
2021/06/18 03:38:50;;;;;;;11.10;8.87;;;20.80;99.90;;;;;;5098143;28;20429;-84
2021/06/18 03:41:18;;;;;;;11.50;10.33;;;20.90;99.90;;;;;;5103627;28;20460;-83
2021/06/18 03:43:44;;;;;;;9.37;8.57;;;21.00;99.90;;;;;;5103886;28;20451;-84
2021/06/18 03:46:11;;;;;;;11.93;10.73;;;21.00;99.90;;;;;;5103646;28;20393;-84
2021/06/18 03:48:37;;;;;;;12.13;11.00;;;21.00;99.90;;;;;;5103431;28;20424;-84
2021/06/18 03:51:07;;;;;;;10.63;9.83;;;21.00;99.90;;;;;;5104079;28;20409;-84
2021/06/18 03:53:34;;;;;;;11.33;9.90;;;20.90;99.90;;;;;;5108065;28;20397;-84
2021/06/18 03:56:01;;;;;;;10.60;9.70;;;21.00;99.90;;;;;;5114459;28;20400;-84
2021/06/18 03:58:28;;;;;;;11.90;10.73;;;20.90;99.90;;;;;;5118748;28;20421;-84
2021/06/18 04:00:56;;;;;;;11.03;10.03;;;21.00;99.90;;;;;;5118294;28;20469;-84
2021/06/18 04:03:23;;;;;;;11.73;9.80;;;21.00;99.90;;;;;;5118837;28;20444;-82
2021/06/18 04:05:50;;;;;;;10.50;9.50;;;21.10;99.90;;;;;;5114366;28;20396;-84
2021/06/18 04:08:20;;;;;;;10.43;9.53;;;21.20;99.90;;;;;;5112449;28;20483;-83
2021/06/18 04:10:49;;;;;;;10.37;9.37;;;21.00;99.90;;;;;;5111995;28;20401;-84
2021/06/18 04:13:15;;;;;;;9.97;9.17;;;21.10;99.90;;;;;;5097079;28;20408;-84
2021/06/18 04:15:41;;;;;;;11.30;9.40;;;21.30;99.90;;;;;;5113343;28;20409;-84
2021/06/18 04:18:09;;;;;;;14.20;10.00;;;21.30;99.90;;;;;;5098644;28;20797;-84
2021/06/18 04:20:35;;;;;;;11.00;9.40;;;21.40;99.90;;;;;;5099942;28;20393;-85
2021/06/18 04:23:01;;;;;;;14.83;9.80;;;21.40;99.90;;;;;;5098013;28;20444;-84
2021/06/18 04:25:27;;;;;;;11.77;10.67;;;21.40;99.90;;;;;;5097912;28;20388;-84
2021/06/18 04:27:54;;;;;;;11.93;10.80;;;21.40;99.90;;;;;;5099548;28;20405;-84
2021/06/18 04:30:22;;;;;;;10.67;9.70;;;21.40;99.90;;;;;;5097125;28;20179;-84
2021/06/18 04:32:47;;;;;;;10.20;9.30;;;21.30;99.90;;;;;;5098861;28;20408;-84
2021/06/18 04:35:14;;;;;;;13.47;12.43;;;21.30;99.90;;;;;;5100805;28;20405;-84
2021/06/18 04:37:42;;;;;;;12.27;10.40;;;21.40;99.90;;;;;;5101610;28;20239;-84
2021/06/18 04:40:09;;;;;;;10.63;8.97;;;21.40;99.90;;;;;;5102144;28;20472;-84
2021/06/18 04:42:36;;;;;;;10.13;9.20;;;21.50;99.90;;;;;;5102421;28;20440;-84
2021/06/18 04:45:03;;;;;;;11.13;10.13;;;21.40;99.90;;;;;;5102436;28;20423;-84
2021/06/18 04:47:28;;;;;;;10.40;9.60;;;21.30;99.90;;;;;;5102681;28;20857;-84
2021/06/18 04:49:54;;;;;;;10.03;9.13;;;20.90;99.90;;;;;;5102660;28;20408;-84
2021/06/18 04:52:23;;;;;;;11.20;10.00;;;20.80;99.90;;;;;;5101045;28;20190;-83
2021/06/18 04:54:54;;;;;;;12.10;10.90;;;20.80;99.90;;;;;;5102277;28;20400;-84
2021/06/18 04:57:20;;;;;;;11.30;10.20;;;21.10;99.90;;;;;;5100582;28;20463;-84
2021/06/18 04:59:46;;;;;;;11.13;10.13;;;21.40;99.90;;;;;;5102067;28;20408;-84
2021/06/18 05:02:12;;;;;;;10.73;9.73;;;21.60;99.90;;;;;;5101874;28;20397;-84
2021/06/18 05:04:38;;;;;;;11.87;10.87;;;21.70;99.90;;;;;;5100755;28;20154;-84
2021/06/18 05:07:03;;;;;;;10.70;9.80;;;21.80;99.90;;;;;;5101612;28;20592;-84
2021/06/18 05:09:29;;;;;;;11.10;9.97;;;21.90;99.90;;;;;;5101502;28;20277;-84
2021/06/18 05:11:55;;;;;;;10.77;9.87;;;22.00;99.90;;;;;;5099909;28;20212;-84
2021/06/18 05:14:21;;;;;;;12.57;11.27;;;22.00;99.90;;;;;;5102165;28;20397;-84
2021/06/18 05:16:47;;;;;;;11.50;10.40;;;22.00;99.90;;;;;;5103295;28;20552;-84
2021/06/18 05:19:13;;;;;;;12.13;11.07;;;22.20;99.90;;;;;;5101005;28;20159;-84
2021/06/18 05:21:40;;;;;;;12.30;10.27;;;22.10;99.90;;;;;;5107940;28;20392;-82
2021/06/18 05:24:06;;;;;;;16.90;11.67;;;21.70;99.90;;;;;;5112738;28;20186;-81
2021/06/18 05:26:34;;;;;;;11.90;10.80;;;21.50;99.90;;;;;;5110333;28;20477;-84
2021/06/18 05:29:00;;;;;;;10.40;9.53;;;21.60;99.90;;;;;;5102419;28;21031;-84
2021/06/18 05:31:26;;;;;;;11.83;10.83;;;21.90;99.90;;;;;;5103059;28;20861;-84
2021/06/18 05:33:52;;;;;;;11.20;10.20;;;22.00;99.90;;;;;;5101481;28;20407;-84
2021/06/18 05:36:18;;;;;;;13.10;11.70;;;22.10;99.90;;;;;;5101919;28;20163;-84
2021/06/18 05:38:44;;;;;;;12.20;10.90;;;22.30;99.90;;;;;;5103421;28;20450;-84
2021/06/18 05:41:10;;;;;;;11.40;10.40;;;22.50;99.90;;;;;;5101362;28;20328;-85
2021/06/18 05:43:35;;;;;;;12.50;10.03;;;22.50;99.90;;;;;;5101881;28;20839;-85
2021/06/18 05:46:01;;;;;;;11.77;9.43;;;22.60;99.90;;;;;;5099918;28;20170;-85
2021/06/18 05:48:27;;;;;;;11.10;10.00;;;22.60;99.90;;;;;;5101650;28;20233;-85
2021/06/18 05:50:54;;;;;;;14.07;10.57;;;22.70;99.90;;;;;;5100218;28;20407;-85
2021/06/18 05:53:20;;;;;;;11.33;10.30;;;22.70;99.90;;;;;;5101276;28;20163;-85
2021/06/18 05:55:47;;;;;;;13.20;11.60;;;22.80;99.90;;;;;;5100912;28;20428;-85
2021/06/18 05:58:13;;;;;;;11.17;10.23;;;23.00;99.90;;;;;;5101597;28;20427;-85
2021/06/18 06:00:39;;;;;;;22.13;11.40;;;23.10;99.90;;;;;;5084063;28;20397;-84
2021/06/18 06:03:05;;;;;;;11.30;10.30;;;23.10;99.90;;;;;;5108151;28;20456;-84
2021/06/18 06:05:34;;;;;;;11.47;10.37;;;23.10;99.90;;;;;;5122684;28;20406;-84
2021/06/18 06:08:28;;;;;;;10.90;9.70;;;23.10;99.90;;;;;;5122914;28;20196;-84
2021/06/18 06:11:00;;;;;;;9.87;9.03;;;23.00;99.90;;;;;;5059769;28;20440;-84
2021/06/18 06:13:26;;;;;;;11.60;10.50;;;23.00;99.90;;;;;;5055179;28;20510;-84
2021/06/18 06:15:52;;;;;;;12.47;9.20;;;23.10;99.90;;;;;;5021164;28;20294;-84
2021/06/18 06:18:18;;;;;;;11.07;10.07;;;23.20;99.90;;;;;;5040128;28;20415;-84
2021/06/18 06:20:45;;;;;;;18.57;10.13;;;23.30;99.90;;;;;;5040216;28;20399;-84
2021/06/18 06:23:12;;;;;;;10.10;9.10;;;23.30;99.90;;;;;;5035283;28;20242;-84
2021/06/18 06:25:39;;;;;;;9.77;8.90;;;23.10;99.90;;;;;;5034568;28;21026;-84
2021/06/18 06:28:29;;;;;;;10.27;9.27;;;23.10;99.90;;;;;;5032386;28;20415;-84
2021/06/18 06:30:56;;;;;;;10.57;9.40;;;23.20;99.90;;;;;;5020581;28;20435;-84
2021/06/18 06:33:22;;;;;;;10.53;9.40;;;23.20;99.90;;;;;;5002530;28;20420;-83
2021/06/18 06:35:49;;;;;;;11.07;9.80;;;23.40;99.90;;;;;;5075243;28;20428;-84
2021/06/18 06:38:19;;;;;;;10.20;9.30;;;23.40;99.90;;;;;;5098348;28;20872;-84
2021/06/18 06:40:45;;;;;;;10.03;9.00;;;23.40;99.90;;;;;;5091584;28;20465;-84
2021/06/18 06:43:10;;;;;;;10.23;9.33;;;23.60;99.90;;;;;;5092236;28;20460;-84
2021/06/18 06:45:36;;;;;;;12.83;9.10;;;23.60;99.90;;;;;;5099112;28;20196;-84
2021/06/18 06:48:02;;;;;;;11.97;9.27;;;23.70;99.90;;;;;;5099135;28;20220;-84
2021/06/18 06:50:28;;;;;;;9.57;8.77;;;23.80;99.90;;;;;;5099409;28;20182;-84
2021/06/18 06:52:57;;;;;;;10.33;9.37;;;23.80;99.90;;;;;;5098200;28;20249;-85
2021/06/18 06:55:23;;;;;;;10.10;9.17;;;23.80;99.90;;;;;;5072259;28;20265;-84
2021/06/18 06:57:51;;;;;;;13.00;9.30;;;23.80;99.90;;;;;;5079169;28;20460;-84
2021/06/18 07:00:17;;;;;;;10.50;9.53;;;23.90;99.90;;;;;;5079981;28;20634;-84
2021/06/18 07:02:44;;;;;;;13.93;8.90;;;24.00;99.90;;;;;;5081459;28;20543;-83
2021/06/18 07:05:11;;;;;;;9.27;8.20;;;24.10;99.90;;;;;;5064346;28;20535;-84
2021/06/18 07:07:37;;;;;;;10.00;8.43;;;24.20;99.90;;;;;;5080488;28;20425;-84
2021/06/18 07:10:05;;;;;;;9.43;8.73;;;24.20;99.90;;;;;;5081271;28;20424;-84
2021/06/18 07:12:31;;;;;;;9.63;8.83;;;24.30;99.90;;;;;;5081913;28;20414;-85
2021/06/18 07:14:58;;;;;;;9.93;9.13;;;24.30;99.90;;;;;;5066093;28;20394;-85
2021/06/18 07:17:24;;;;;;;8.93;8.33;;;24.40;99.90;;;;;;5065762;28;20398;-85
2021/06/18 07:19:54;;;;;;;10.00;9.10;;;24.40;99.90;;;;;;5089636;28;20459;-83
2021/06/18 07:22:21;;;;;;;11.53;9.37;;;24.60;99.90;;;;;;5083341;28;20397;-83
2021/06/18 07:24:48;;;;;;;10.03;9.13;;;24.60;99.90;;;;;;5111710;28;20454;-83
2021/06/18 07:27:15;;;;;;;8.77;8.00;;;24.70;99.90;;;;;;5102621;28;20864;-85
2021/06/18 07:29:42;;;;;;;12.63;9.47;;;24.80;99.90;;;;;;5106905;28;20440;-85
2021/06/18 07:32:09;;;;;;;9.37;8.67;;;24.80;99.90;;;;;;5116344;28;20455;-85
2021/06/18 07:34:36;;;;;;;9.07;8.30;;;24.90;99.90;;;;;;5100712;28;20473;-84
2021/06/18 07:37:03;;;;;;;9.43;8.43;;;24.90;99.90;;;;;;5088605;28;20414;-85
2021/06/18 07:39:32;;;;;;;8.47;7.67;;;25.10;99.90;;;;;;5107985;28;20475;-85
2021/06/18 07:41:58;;;;;;;8.97;8.07;;;25.20;99.90;;;;;;5099596;28;20412;-84
2021/06/18 07:44:24;;;;;;;10.97;8.73;;;25.20;99.90;;;;;;5100275;28;20462;-86
2021/06/18 07:46:50;;;;;;;8.87;8.17;;;25.30;99.90;;;;;;5080117;28;20647;-85
2021/06/18 07:49:16;;;;;;;9.27;8.43;;;25.30;99.90;;;;;;5080413;28;20413;-85
2021/06/18 07:51:42;;;;;;;8.53;7.90;;;25.40;99.90;;;;;;5095001;28;20228;-85
2021/06/18 07:54:08;;;;;;;7.83;7.23;;;25.50;99.90;;;;;;5097504;28;20631;-85
2021/06/18 07:56:40;;;;;;;9.67;8.67;;;25.60;99.90;;;;;;5086412;28;20639;-85
2021/06/18 07:59:06;;;;;;;9.43;7.90;;;25.70;99.90;;;;;;5095967;28;20420;-85
2021/06/18 08:01:32;;;;;;;8.73;7.87;;;25.90;99.90;;;;;;5082699;28;20416;-84
2021/06/18 08:04:01;;;;;;;7.83;7.13;;;26.10;99.90;;;;;;5081710;28;20202;-85
2021/06/18 08:06:27;;;;;;;8.60;7.80;;;26.00;99.90;;;;;;5100063;28;20204;-85
2021/06/18 08:08:52;;;;;;;8.07;7.37;;;26.10;99.90;;;;;;5098980;28;20432;-85
2021/06/18 08:11:18;;;;;;;12.50;7.43;;;26.00;99.90;;;;;;5099797;28;20205;-85
2021/06/18 08:13:44;;;;;;;8.30;7.50;;;26.20;99.90;;;;;;5099977;28;20162;-85
2021/06/18 08:16:12;;;;;;;8.60;7.90;;;26.30;99.90;;;;;;5100292;28;20404;-85
2021/06/18 08:18:39;;;;;;;8.90;8.00;;;26.50;99.90;;;;;;5073405;28;20186;-85
2021/06/18 08:21:09;;;;;;;7.57;7.00;;;26.40;99.90;;;;;;5079178;28;20420;-83
2021/06/18 08:23:35;;;;;;;10.70;7.37;;;26.50;99.90;;;;;;5079937;28;20581;-85
2021/06/18 08:26:01;;;;;;;8.30;7.60;;;26.70;99.90;;;;;;5085928;28;20450;-85
2021/06/18 08:28:28;;;;;;;10.37;8.27;;;26.70;99.90;;;;;;5098376;28;20408;-86
2021/06/18 08:30:57;;;;;;;7.13;6.60;;;26.80;99.90;;;;;;5115580;28;20158;-85
2021/06/18 08:33:24;;;;;;;8.47;7.00;;;26.90;99.90;;;;;;5100328;28;20419;-85
2021/06/18 08:35:50;;;;;;;8.83;8.03;;;26.80;99.90;;;;;;5099911;28;20415;-86
2021/06/18 08:38:16;;;;;;;7.57;7.00;;;27.10;99.90;;;;;;5098918;28;20415;-84
2021/06/18 08:40:43;;;;;;;7.80;7.10;;;27.00;99.90;;;;;;5099236;28;20479;-84
2021/06/18 08:43:09;;;;;;;7.60;6.90;;;27.10;99.90;;;;;;5099856;28;20551;-85
2021/06/18 08:45:35;;;;;;;9.67;6.90;;;27.10;99.90;;;;;;5099020;28;20436;-85
2021/06/18 08:48:02;;;;;;;8.47;6.30;;;27.10;99.90;;;;;;5115153;28;20399;-85
2021/06/18 08:50:28;;;;;;;8.43;6.80;;;27.20;99.90;;;;;;5099709;28;20392;-85
2021/06/18 08:52:57;;;;;;;6.60;6.00;;;27.30;99.90;;;;;;5100402;28;20396;-86
2021/06/18 08:55:26;;;;;;;6.10;5.70;;;27.40;99.90;;;;;;5100554;28;20450;-84
2021/06/18 08:57:55;;;;;;;10.43;6.70;;;27.50;99.90;;;;;;5099906;28;20419;-85
2021/06/18 09:00:23;;;;;;;10.90;7.73;;;27.60;99.90;;;;;;5097405;28;20459;-85
2021/06/18 09:02:49;;;;;;;7.83;7.13;;;27.60;99.90;;;;;;5111937;28;20448;-86
2021/06/18 09:05:16;;;;;;;7.53;6.60;;;27.70;99.90;;;;;;5082736;28;20901;-85
2021/06/18 09:08:06;;;;;;;8.43;7.73;;;27.70;99.90;;;;;;5100810;28;20473;-85
2021/06/18 09:10:40;;;;;;;22.23;7.17;;;27.70;99.90;;;;;;5103587;28;20431;-85
2021/06/18 09:13:12;;;;;;;7.70;7.00;;;27.90;99.90;;;;;;5104905;28;20400;-83
2021/06/18 09:15:41;;;;;;;7.17;6.60;;;27.90;99.90;;;;;;5106100;28;20408;-84
2021/06/18 09:18:31;;;;;;;7.37;6.50;;;27.90;99.90;;;;;;5084446;28;20412;-85
2021/06/18 09:21:17;;;;;;;6.30;5.80;;;27.90;99.90;;;;;;5102751;28;20400;-85
2021/06/18 09:23:47;;;;;;;8.30;7.17;;;28.00;99.90;;;;;;5107125;28;20485;-85
2021/06/18 09:26:21;;;;;;;7.10;6.50;;;28.00;99.90;;;;;;5120534;28;20400;-85
2021/06/18 09:29:10;;;;;;;6.97;6.40;;;28.30;99.90;;;;;;5136373;28;20399;-85
2021/06/18 09:31:41;;;;;;;7.97;7.03;;;28.20;99.90;;;;;;5146622;27;20406;-85
2021/06/18 09:34:08;;;;;;;7.07;6.57;;;28.10;99.90;;;;;;5125408;28;20448;-85
2021/06/18 09:36:36;;;;;;;8.70;6.03;;;28.30;99.90;;;;;;5124462;28;20395;-85
2021/06/18 09:39:06;;;;;;;8.10;7.30;;;28.50;99.90;;;;;;5141526;27;20395;-85
2021/06/18 09:41:46;;;;;;;8.90;7.10;;;28.60;99.90;;;;;;5126445;28;20410;-85
2021/06/18 09:44:16;;;;;;;7.03;6.53;;;28.50;99.90;;;;;;5123530;28;20482;-85
2021/06/18 09:46:57;;;;;;;6.83;6.23;;;28.50;99.90;;;;;;5139323;27;20468;-86
2021/06/18 09:49:40;;;;;;;7.60;7.00;;;28.60;99.90;;;;;;5123585;28;20956;-85
2021/06/18 09:52:09;;;;;;;6.13;5.73;;;28.70;99.90;;;;;;5105389;28;20402;-85
2021/06/18 09:54:42;;;;;;;7.27;6.50;;;28.70;99.90;;;;;;5123996;28;20411;-85
2021/06/18 09:57:17;;;;;;;6.80;6.30;;;28.90;99.90;;;;;;5123039;27;20868;-85
2021/06/18 09:59:57;;;;;;;7.50;6.03;;;29.00;99.90;;;;;;5087728;28;20521;-85
2021/06/18 10:02:38;;;;;;;10.60;6.20;;;29.00;99.90;;;;;;5085374;28;20420;-85
2021/06/18 10:05:07;;;;;;;6.50;5.83;;;29.20;99.90;;;;;;5083665;28;20487;-85
2021/06/18 10:07:34;;;;;;;7.50;6.80;;;29.30;99.90;;;;;;5067059;28;20400;-85
2021/06/18 10:10:04;;;;;;;6.97;6.37;;;29.40;99.90;;;;;;5101316;28;20790;-85
2021/06/18 10:12:31;;;;;;;7.20;6.00;;;29.50;99.90;;;;;;5085541;28;20494;-85
2021/06/18 10:15:06;;;;;;;7.00;6.33;;;29.70;99.90;;;;;;5070114;28;20408;-85
2021/06/18 10:17:36;;;;;;;5.90;5.43;;;29.50;99.90;;;;;;5071051;28;20423;-85
2021/06/18 10:20:07;;;;;;;6.77;6.13;;;29.60;99.90;;;;;;5083278;28;20440;-85
2021/06/18 10:22:38;;;;;;;7.23;6.50;;;29.60;99.90;;;;;;5047268;28;20454;-85
2021/06/18 10:25:10;;;;;;;6.77;6.17;;;29.80;99.90;;;;;;5100927;28;20428;-84
2021/06/18 10:27:51;;;;;;;8.67;6.97;;;30.00;99.90;;;;;;5103824;28;20432;-85
2021/06/18 10:30:36;;;;;;;7.20;6.70;;;29.90;99.90;;;;;;5070582;28;20420;-86
2021/06/18 10:33:30;;;;;;;6.60;6.10;;;29.80;99.90;;;;;;5104900;28;20401;-85
2021/06/18 10:36:02;;;;;;;7.10;6.37;;;30.20;99.90;;;;;;5105815;28;20416;-84
2021/06/18 10:38:45;;;;;;;15.20;7.30;;;30.20;99.90;;;;;;5082973;28;20431;-85
2021/06/18 10:41:29;;;;;;;8.33;7.63;;;30.20;99.90;;;;;;5103179;28;20466;-85
2021/06/18 10:43:57;;;;;;;6.97;6.47;;;30.40;99.90;;;;;;5104856;28;20454;-85
2021/06/18 10:46:32;;;;;;;7.67;6.90;;;30.40;99.90;;;;;;5103544;28;20671;-84
2021/06/18 10:49:02;;;;;;;7.40;6.80;;;30.50;99.90;;;;;;5070893;28;20404;-84
2021/06/18 10:51:35;;;;;;;8.23;7.43;;;30.70;99.90;;;;;;5104309;28;20483;-84
2021/06/18 10:54:28;;;;;;;6.93;6.20;;;30.30;99.90;;;;;;5110788;28;20513;-86
2021/06/18 10:56:57;;;;;;;8.10;6.30;;;30.70;99.90;;;;;;5106081;28;20420;-85
2021/06/18 10:59:44;;;;;;;7.43;6.73;;;30.80;99.90;;;;;;5086605;28;20416;-85
2021/06/18 11:02:31;;;;;;;6.10;5.70;;;31.20;99.90;;;;;;5083422;28;20399;-85
2021/06/18 11:05:00;;;;;;;7.97;7.37;;;30.90;99.90;;;;;;5080986;28;20394;-84
2021/06/18 11:07:33;;;;;;;6.30;5.90;;;31.10;99.90;;;;;;5081887;28;20773;-84
2021/06/18 11:10:13;;;;;;;9.53;6.60;;;30.90;99.90;;;;;;5083318;28;20419;-85
2021/06/18 11:12:42;;;;;;;6.80;6.37;;;31.20;99.90;;;;;;5100176;28;20496;-84
2021/06/18 11:15:38;;;;;;;5.70;5.30;;;31.30;99.90;;;;;;5101878;28;20467;-84
2021/06/18 11:18:17;;;;;;;7.07;6.37;;;31.30;98.80;;;;;;5107940;28;20390;-85
2021/06/18 11:20:49;;;;;;;6.50;5.90;;;31.80;99.60;;;;;;5103186;28;20400;-84
2021/06/18 11:23:22;;;;;;;6.57;6.07;;;31.40;98.80;;;;;;5101245;28;20448;-86
2021/06/18 11:25:51;;;;;;;5.93;5.47;;;31.20;99.00;;;;;;5080245;28;20420;-84
2021/06/18 11:28:33;;;;;;;5.93;5.50;;;31.60;98.80;;;;;;5062525;28;20505;-84
2021/06/18 11:31:07;;;;;;;6.40;5.90;;;32.10;95.90;;;;;;5079702;28;20417;-86
2021/06/18 11:33:51;;;;;;;6.90;6.33;;;32.30;97.00;;;;;;5046760;28;20534;-85
2021/06/18 11:36:43;;;;;;;6.50;5.97;;;32.30;95.50;;;;;;5064411;28;20431;-85
2021/06/18 11:39:15;;;;;;;6.47;4.97;;;32.50;94.80;;;;;;5065861;28;20714;-86
2021/06/18 11:41:43;;;;;;;6.67;5.97;;;32.70;93.00;;;;;;5060952;28;20425;-86
2021/06/18 11:44:13;;;;;;;6.70;6.00;;;32.80;91.60;;;;;;5060771;28;20458;-84
2021/06/18 11:46:41;;;;;;;6.10;5.70;;;32.10;92.10;;;;;;5048245;28;20448;-86
2021/06/18 11:49:10;;;;;;;4.23;3.83;;;32.30;90.00;;;;;;5049877;28;20498;-84
2021/06/18 11:51:36;;;;;;;4.93;4.03;;;32.00;76.60;;;;;;5042220;28;20445;-85
2021/06/18 11:54:05;;;;;;;4.60;4.30;;;32.10;84.60;;;;;;5046933;28;20417;-84
2021/06/18 11:56:33;;;;;;;5.43;4.97;;;32.10;84.00;;;;;;5057152;28;20468;-85
2021/06/18 11:59:01;;;;;;;4.70;4.30;;;32.60;80.40;;;;;;5067511;28;20456;-85
2021/06/18 12:01:31;;;;;;;5.70;5.33;;;33.00;78.30;;;;;;5071934;28;20445;-85
2021/06/18 12:03:59;;;;;;;6.13;5.50;;;32.80;81.20;;;;;;5075628;28;20265;-85
2021/06/18 12:06:31;;;;;;;5.50;5.05;;;33.20;82.20;;;;;;5075268;28;20195;-85
2021/06/18 12:08:58;;;;;;;4.95;4.50;;;33.50;79.00;;;;;;5065964;28;20240;-86
2021/06/18 12:11:28;;;;;;;5.25;4.75;;;33.80;77.50;;;;;;5063573;28;20163;-86
2021/06/18 12:13:55;;;;;;;5.80;5.25;;;33.00;79.90;;;;;;5060265;28;20163;-86
2021/06/18 12:16:27;;;;;;;6.20;5.80;;;32.90;78.80;;;;;;5060568;28;20636;-85
2021/06/18 12:18:53;;;;;;;7.25;5.00;;;32.90;77.50;;;;;;5026118;28;20244;-86
2021/06/18 12:21:28;;;;;;;5.35;4.95;;;33.20;76.30;;;;;;5061619;28;20250;-85
2021/06/18 12:24:02;;;;;;;7.22;5.75;;;33.10;75.70;;;;;;5060833;28;20681;-85
2021/06/18 12:26:29;;;;;;;5.70;5.13;;;33.00;73.90;;;;;;5058594;28;20212;-85
2021/06/18 12:29:00;;;;;;;9.57;4.85;;;32.90;76.50;;;;;;5041348;28;20560;-86
2021/06/18 12:31:26;;;;;;;7.00;5.70;;;32.70;77.60;;;;;;5037249;28;20184;-85
2021/06/18 12:33:52;;;;;;;5.90;5.50;;;33.20;76.00;;;;;;5053765;28;20743;-85
2021/06/18 12:36:19;;;;;;;8.00;5.53;;;33.10;74.20;;;;;;5058876;28;20175;-85
2021/06/18 12:38:49;;;;;;;5.18;4.78;;;33.20;72.60;;;;;;5059768;28;20171;-84
2021/06/18 12:41:24;;;;;;;6.15;5.70;;;33.00;71.40;;;;;;5073366;28;20215;-86
2021/06/18 12:44:07;;;;;;;5.70;4.68;;;33.90;69.80;;;;;;5060293;28;20187;-86
2021/06/18 12:46:34;;;;;;;6.00;5.50;;;33.70;69.10;;;;;;5058030;28;20179;-86
2021/06/18 12:49:08;;;;;;;5.13;4.72;;;33.50;67.90;;;;;;5059913;28;20152;-86
2021/06/18 12:51:35;;;;;;;5.50;5.00;;;33.60;68.00;;;;;;5059019;28;20218;-86
2021/06/18 12:54:05;;;;;;;4.65;4.25;;;34.30;67.60;;;;;;5042716;28;20249;-86